createdAt,value
2022-09-28T00:01:25.511Z,91.00
2022-09-28T00:03:57.632Z,90.90
2022-09-28T00:06:26.624Z,90.86
2022-09-28T00:08:55.879Z,90.83
2022-09-28T00:11:27.491Z,90.53
2022-09-28T00:13:59.497Z,90.18
2022-09-28T00:16:30.537Z,90.27
2022-09-28T00:18:59.358Z,90.32
2022-09-28T00:21:29.752Z,90.51
2022-09-28T00:24:12.082Z,91.06
2022-09-28T00:26:40.502Z,91.35
2022-09-28T00:29:16.634Z,91.23
2022-09-28T00:31:45.768Z,91.32
2022-09-28T00:34:15.579Z,91.25
2022-09-28T00:36:46.002Z,91.40
2022-09-28T00:39:15.528Z,91.29
2022-09-28T00:41:44.369Z,91.30
2022-09-28T00:44:38.090Z,91.20
2022-09-28T00:47:18.954Z,91.09
2022-09-28T00:49:53.396Z,91.04
2022-09-28T00:52:26.623Z,91.06
2022-09-28T00:54:57.494Z,91.27
2022-09-28T00:57:27.543Z,91.30
2022-09-28T00:59:56.563Z,91.24
2022-09-28T01:02:25.216Z,91.17
2022-09-28T01:04:54.324Z,91.22
2022-09-28T01:07:23.321Z,91.31
2022-09-28T01:09:54.041Z,91.37
2022-09-28T01:12:22.908Z,91.25
2022-09-28T01:14:52.392Z,91.47
2022-09-28T01:17:25.808Z,91.32
2022-09-28T01:20:26.279Z,91.12
2022-09-28T01:23:42.948Z,90.87
2022-09-28T01:26:42.473Z,90.95
2022-09-28T01:29:22.114Z,91.10
2022-09-28T01:31:56.709Z,91.08
2022-09-28T01:34:31.866Z,91.01
2022-09-28T01:37:04.494Z,90.90
2022-09-28T01:39:38.155Z,90.92
2022-09-28T01:42:11.863Z,90.73
2022-09-28T01:44:45.679Z,90.67
2022-09-28T01:47:19.439Z,90.57
2022-09-28T01:49:52.847Z,90.49
2022-09-28T01:52:27.345Z,90.59
2022-09-28T01:54:58.841Z,90.51
2022-09-28T01:57:34.025Z,90.56
2022-09-28T02:00:09.961Z,90.51
2022-09-28T02:02:48.493Z,90.15
2022-09-28T02:05:21.381Z,90.09
2022-09-28T02:07:59.401Z,90.16
2022-09-28T02:10:33.282Z,90.25
2022-09-28T02:13:05.521Z,90.22
2022-09-28T02:15:42.259Z,90.17
2022-09-28T02:18:11.124Z,90.10
2022-09-28T02:20:42.428Z,89.88
2022-09-28T02:23:11.184Z,90.03
2022-09-28T02:25:45.145Z,89.65
2022-09-28T02:28:14.502Z,89.57
2022-09-28T02:30:44.468Z,89.77
2022-09-28T02:33:17.974Z,89.79
2022-09-28T02:35:46.887Z,89.61
2022-09-28T02:38:15.867Z,89.60
2022-09-28T02:40:53.258Z,89.64
2022-09-28T02:43:26.204Z,89.56
2022-09-28T02:46:11.535Z,89.73
2022-09-28T02:49:21.414Z,89.61
2022-09-28T02:52:05.785Z,89.57
2022-09-28T02:55:02.534Z,89.60
2022-09-28T02:57:46.208Z,89.44
2022-09-28T03:00:18.760Z,89.59
2022-09-28T03:02:59.578Z,89.66
2022-09-28T03:05:38.517Z,89.68
2022-09-28T03:08:15.161Z,89.38
2022-09-28T03:10:48.430Z,89.48
2022-09-28T03:13:17.875Z,89.47
2022-09-28T03:15:48.868Z,89.71
2022-09-28T03:18:19.088Z,89.83
2022-09-28T03:20:49.333Z,89.71
2022-09-28T03:23:24.652Z,89.92
2022-09-28T03:25:54.341Z,90.18
2022-09-28T03:28:23.192Z,90.14
2022-09-28T03:30:51.782Z,90.18
2022-09-28T03:33:20.672Z,90.14
2022-09-28T03:35:50.129Z,90.06
2022-09-28T03:38:19.221Z,89.91
2022-09-28T03:40:54.783Z,89.99
2022-09-28T03:43:24.525Z,90.20
2022-09-28T03:45:54.434Z,90.17
2022-09-28T03:48:27.731Z,90.21
2022-09-28T03:51:02.280Z,90.17
2022-09-28T03:53:31.031Z,90.22
2022-09-28T03:56:04.403Z,90.15
2022-09-28T03:58:33.663Z,90.18
2022-09-28T04:01:04.076Z,90.28
2022-09-28T04:03:33.220Z,90.33
2022-09-28T04:06:01.868Z,90.58
2022-09-28T04:08:30.513Z,90.61
2022-09-28T04:10:59.664Z,90.65
2022-09-28T04:13:29.494Z,90.73
2022-09-28T04:16:00.450Z,90.67
2022-09-28T04:18:32.345Z,89.99
2022-09-28T04:21:14.853Z,89.88
2022-09-28T04:23:48.169Z,90.04
2022-09-28T04:26:20.617Z,90.27
2022-09-28T04:29:07.767Z,90.39
2022-09-28T04:31:41.864Z,90.42
2022-09-28T04:34:11.006Z,90.31
2022-09-28T04:36:40.935Z,90.38
2022-09-28T04:39:11.066Z,90.10
2022-09-28T04:41:39.952Z,89.74
2022-09-28T04:44:09.365Z,89.72
2022-09-28T04:46:37.961Z,89.88
2022-09-28T04:49:26.801Z,90.05
2022-09-28T04:51:58.377Z,90.02
2022-09-28T04:54:26.833Z,90.08
2022-09-28T04:56:55.358Z,90.18
2022-09-28T04:59:24.240Z,90.38
2022-09-28T05:01:53.493Z,90.37
2022-09-28T05:04:25.769Z,90.34
2022-09-28T05:07:30.919Z,90.35
2022-09-28T05:10:01.488Z,90.36
2022-09-28T05:12:32.377Z,90.24
2022-09-28T05:15:01.716Z,90.35
2022-09-28T05:17:31.342Z,90.24
2022-09-28T05:20:08.447Z,90.39
2022-09-28T05:22:37.106Z,90.23
2022-09-28T05:25:08.336Z,89.91
2022-09-28T05:27:47.931Z,90.11
2022-09-28T05:30:36.135Z,90.40
2022-09-28T05:33:37.577Z,90.41
2022-09-28T05:36:12.985Z,90.48
2022-09-28T05:38:41.703Z,90.73
2022-09-28T05:41:11.039Z,90.80
2022-09-28T05:43:40.681Z,90.99
2022-09-28T05:46:09.245Z,90.92
2022-09-28T05:48:40.544Z,90.84
2022-09-28T05:51:09.881Z,90.57
2022-09-28T05:53:38.536Z,90.77
2022-09-28T05:56:07.850Z,90.38
2022-09-28T05:58:38.473Z,90.04
2022-09-28T06:01:07.277Z,89.95
2022-09-28T06:03:35.977Z,90.03
2022-09-28T06:06:04.763Z,89.91
2022-09-28T06:08:33.724Z,89.54
2022-09-28T06:11:15.917Z,89.81
2022-09-28T06:13:44.568Z,89.82
2022-09-28T06:16:16.276Z,89.59
2022-09-28T06:18:44.896Z,89.86
2022-09-28T06:21:14.054Z,89.82
2022-09-28T06:23:49.336Z,89.72
2022-09-28T06:26:19.369Z,89.75
2022-09-28T06:28:48.017Z,89.73
2022-09-28T06:31:17.369Z,89.90
2022-09-28T06:33:50.487Z,89.59
2022-09-28T06:36:20.278Z,88.67
2022-09-28T06:38:48.943Z,88.63
2022-09-28T06:41:17.799Z,88.67
2022-09-28T06:43:48.894Z,88.70
2022-09-28T06:46:40.718Z,89.11
2022-09-28T06:49:27.145Z,88.51
2022-09-28T06:52:14.438Z,89.36
2022-09-28T06:55:01.584Z,89.38
2022-09-28T06:57:43.388Z,88.06
2022-09-28T07:00:14.416Z,85.52
2022-09-28T07:02:45.601Z,82.80
2022-09-28T07:05:36.432Z,81.05
2022-09-28T07:08:26.097Z,79.82
2022-09-28T07:11:26.313Z,76.15
2022-09-28T07:14:44.752Z,72.84
2022-09-28T07:17:16.176Z,72.20
2022-09-28T07:19:45.152Z,70.17
2022-09-28T07:22:18.443Z,70.59
2022-09-28T07:24:48.485Z,69.26
2022-09-28T07:27:37.049Z,66.83
2022-09-28T07:30:26.071Z,65.51
2022-09-28T07:33:03.195Z,66.82
2022-09-28T07:35:52.377Z,67.25
2022-09-28T07:38:22.370Z,67.21
2022-09-28T07:41:09.502Z,67.51
2022-09-28T07:43:39.931Z,67.58
2022-09-28T07:46:11.344Z,68.06
2022-09-28T07:48:45.144Z,68.93
2022-09-28T07:51:36.821Z,65.74
2022-09-28T07:54:20.684Z,66.29
2022-09-28T07:57:08.108Z,65.81
2022-09-28T07:59:55.677Z,66.66
2022-09-28T08:02:42.667Z,63.10
2022-09-28T08:05:12.107Z,61.28
2022-09-28T08:07:42.378Z,60.95
2022-09-28T08:10:11.660Z,60.21
2022-09-28T08:13:06.526Z,60.21
2022-09-28T08:15:45.534Z,60.79
2022-09-28T08:18:34.082Z,60.87
2022-09-28T08:21:21.940Z,59.02
2022-09-28T08:23:51.155Z,59.32
2022-09-28T08:26:19.955Z,58.62
2022-09-28T08:28:48.648Z,56.64
2022-09-28T08:31:47.175Z,57.63
2022-09-28T08:34:34.757Z,57.92
2022-09-28T08:37:09.688Z,57.14
2022-09-28T08:39:56.515Z,56.61
2022-09-28T08:42:56.142Z,56.02
2022-09-28T08:45:34.384Z,56.12
2022-09-28T08:48:45.684Z,55.76
2022-09-28T08:51:47.723Z,55.09
2022-09-28T08:54:41.162Z,53.75
2022-09-28T08:57:18.790Z,52.30
2022-09-28T08:59:51.702Z,52.52
2022-09-28T09:02:33.921Z,51.69
2022-09-28T09:05:18.520Z,50.38
2022-09-28T09:08:15.368Z,49.99
2022-09-28T09:10:53.278Z,50.71
2022-09-28T09:13:51.923Z,52.04
2022-09-28T09:16:32.293Z,53.36
2022-09-28T09:19:12.558Z,54.31
2022-09-28T09:22:10.666Z,54.34
2022-09-28T09:24:48.258Z,55.06
2022-09-28T09:27:36.961Z,54.86
2022-09-28T09:30:10.231Z,55.09
2022-09-28T09:33:04.507Z,54.38
2022-09-28T09:36:05.931Z,54.32
2022-09-28T09:39:07.213Z,53.86
2022-09-28T09:42:06.094Z,54.10
2022-09-28T09:45:31.069Z,53.53
2022-09-28T09:48:18.292Z,53.64
2022-09-28T09:50:52.639Z,53.59
2022-09-28T09:53:28.246Z,53.51
2022-09-28T09:56:02.199Z,52.58
2022-09-28T09:59:03.919Z,52.68
2022-09-28T10:01:40.186Z,49.55
2022-09-28T10:04:24.308Z,49.90
2022-09-28T10:06:58.460Z,49.90
2022-09-28T10:09:31.696Z,49.80
2022-09-28T10:12:19.220Z,50.10
2022-09-28T10:14:48.956Z,51.27
2022-09-28T10:17:19.481Z,52.69
2022-09-28T10:20:14.425Z,53.54
2022-09-28T10:23:01.480Z,54.92
2022-09-28T10:25:33.240Z,55.40
2022-09-28T10:28:03.036Z,55.20
2022-09-28T10:30:43.568Z,55.28
2022-09-28T10:33:30.255Z,55.68
2022-09-28T10:35:59.924Z,55.32
2022-09-28T10:38:30.652Z,55.99
2022-09-28T10:41:12.812Z,54.87
2022-09-28T10:44:05.839Z,54.87
2022-09-28T10:46:55.250Z,55.25
2022-09-28T10:49:27.887Z,55.29
2022-09-28T10:51:59.080Z,55.40
2022-09-28T10:54:32.253Z,55.78
2022-09-28T10:57:02.247Z,56.03
2022-09-28T10:59:46.944Z,56.25
2022-09-28T11:02:40.198Z,57.15
2022-09-28T11:05:22.626Z,57.31
2022-09-28T11:07:54.716Z,57.49
2022-09-28T11:10:28.589Z,57.40
2022-09-28T11:13:00.693Z,57.63
2022-09-28T11:15:32.864Z,57.62
2022-09-28T11:18:21.700Z,58.38
2022-09-28T11:20:51.070Z,58.69
2022-09-28T11:23:26.398Z,58.76
2022-09-28T11:26:04.181Z,58.62
2022-09-28T11:28:36.902Z,58.07
2022-09-28T11:31:11.494Z,56.37
2022-09-28T11:34:16.216Z,56.36
2022-09-28T11:37:19.725Z,57.43
2022-09-28T11:39:55.755Z,57.30
2022-09-28T11:42:37.035Z,57.91
2022-09-28T11:45:25.475Z,58.44
2022-09-28T11:47:59.314Z,58.77
2022-09-28T11:50:35.347Z,59.26
2022-09-28T11:53:18.050Z,59.17
2022-09-28T11:55:51.503Z,58.46
2022-09-28T11:58:27.450Z,58.45
2022-09-28T12:01:03.025Z,58.10
2022-09-28T12:03:50.433Z,58.17
2022-09-28T12:06:25.284Z,57.55
2022-09-28T12:09:02.468Z,57.43
2022-09-28T12:11:54.281Z,58.25
2022-09-28T12:14:38.066Z,58.40
2022-09-28T12:17:19.349Z,58.69
2022-09-28T12:19:55.018Z,58.62
2022-09-28T12:22:31.820Z,58.81
2022-09-28T12:25:02.253Z,59.08
2022-09-28T12:27:38.463Z,58.81
2022-09-28T12:30:15.322Z,58.17
2022-09-28T12:32:49.229Z,58.18
2022-09-28T12:35:28.142Z,58.43
2022-09-28T12:38:17.987Z,58.28
2022-09-28T12:40:53.424Z,58.77
2022-09-28T12:43:53.977Z,59.07
2022-09-28T12:46:36.937Z,59.23
2022-09-28T12:50:20.455Z,59.46
2022-09-28T12:52:36.298Z,60.23
2022-09-28T12:55:36.627Z,60.89
2022-09-28T12:58:20.642Z,61.44
2022-09-28T13:01:00.323Z,61.86
2022-09-28T13:03:50.747Z,62.03
2022-09-28T13:06:46.567Z,62.12
2022-09-28T13:09:21.930Z,62.11
2022-09-28T13:12:04.771Z,61.84
2022-09-28T13:14:58.115Z,62.70
2022-09-28T13:17:40.800Z,62.88
2022-09-28T13:20:23.190Z,63.16
2022-09-28T13:23:01.725Z,63.49
2022-09-28T13:25:35.451Z,64.20
2022-09-28T13:28:05.669Z,65.37
2022-09-28T13:30:36.273Z,66.39
2022-09-28T13:33:07.642Z,66.68
2022-09-28T13:35:42.849Z,67.44
2022-09-28T13:38:46.840Z,67.82
2022-09-28T13:41:19.219Z,68.28
2022-09-28T13:44:12.860Z,68.54
2022-09-28T13:46:51.018Z,68.92
2022-09-28T13:49:25.914Z,69.40
2022-09-28T13:52:05.867Z,70.04
2022-09-28T13:54:59.875Z,70.64
2022-09-28T13:57:41.361Z,70.63
2022-09-28T14:00:21.183Z,70.59
2022-09-28T14:02:58.281Z,70.91
2022-09-28T14:05:47.873Z,71.25
2022-09-28T14:08:39.740Z,71.62
2022-09-28T14:11:46.998Z,71.95
2022-09-28T14:14:49.491Z,73.05
2022-09-28T14:17:49.443Z,73.32
2022-09-28T14:20:22.315Z,73.70
2022-09-28T14:23:24.649Z,73.84
2022-09-28T14:26:40.920Z,74.37
2022-09-28T14:29:22.408Z,74.70
2022-09-28T14:31:51.144Z,74.86
2022-09-28T14:34:33.604Z,75.52
2022-09-28T14:37:23.129Z,75.33
2022-09-28T14:40:09.916Z,75.04
2022-09-28T14:43:01.111Z,75.41
2022-09-28T14:45:37.736Z,76.03
2022-09-28T14:48:14.724Z,76.17
2022-09-28T14:50:43.271Z,75.97
2022-09-28T14:53:13.800Z,76.10
2022-09-28T14:55:49.499Z,77.12
2022-09-28T14:58:24.488Z,77.32
2022-09-28T15:01:00.358Z,77.19
2022-09-28T15:03:32.520Z,77.14
2022-09-28T15:06:01.305Z,77.26
2022-09-28T15:08:39.586Z,77.64
2022-09-28T15:11:13.684Z,78.30
2022-09-28T15:13:43.281Z,78.66
2022-09-28T15:16:15.291Z,78.97
2022-09-28T15:19:05.714Z,79.50
2022-09-28T15:21:36.586Z,79.77
2022-09-28T15:24:24.999Z,80.25
2022-09-28T15:26:53.705Z,81.01
2022-09-28T15:29:26.615Z,81.39
2022-09-28T15:31:55.098Z,81.59
2022-09-28T15:34:50.539Z,81.92
2022-09-28T15:37:21.791Z,82.72
2022-09-28T15:39:52.171Z,83.19
2022-09-28T15:42:21.956Z,83.48
2022-09-28T15:45:22.375Z,83.75
2022-09-28T15:47:55.478Z,84.09
2022-09-28T15:50:26.894Z,84.37
2022-09-28T15:53:00.206Z,84.74
2022-09-28T15:55:31.974Z,85.24
2022-09-28T15:58:15.134Z,85.11
2022-09-28T16:00:45.711Z,85.11
2022-09-28T16:03:24.013Z,85.12
2022-09-28T16:06:06.653Z,84.86
2022-09-28T16:08:41.298Z,85.03
2022-09-28T16:11:18.128Z,84.93
2022-09-28T16:13:55.873Z,84.99
2022-09-28T16:16:29.242Z,85.11
2022-09-28T16:19:00.503Z,85.21
2022-09-28T16:21:44.452Z,85.32
2022-09-28T16:24:25.637Z,85.63
2022-09-28T16:27:00.927Z,85.79
2022-09-28T16:29:39.157Z,85.99
2022-09-28T16:32:41.033Z,86.33
2022-09-28T16:35:18.878Z,86.68
2022-09-28T16:37:48.470Z,86.72
2022-09-28T16:40:17.324Z,86.94
2022-09-28T16:42:49.068Z,87.05
2022-09-28T16:45:19.182Z,87.27
2022-09-28T16:47:52.214Z,87.19
2022-09-28T16:50:22.004Z,87.23
2022-09-28T16:53:14.712Z,87.37
2022-09-28T16:55:43.319Z,87.25
2022-09-28T16:58:12.507Z,87.37
2022-09-28T17:00:42.837Z,87.17
2022-09-28T17:03:14.164Z,87.48
2022-09-28T17:05:44.240Z,87.38
2022-09-28T17:08:16.871Z,87.38
2022-09-28T17:11:13.570Z,87.44
2022-09-28T17:13:40.592Z,87.08
2022-09-28T17:16:13.497Z,87.28
2022-09-28T17:18:42.046Z,87.45
2022-09-28T17:21:15.105Z,87.54
2022-09-28T17:23:43.829Z,87.46
2022-09-28T17:26:21.074Z,87.28
2022-09-28T17:28:49.761Z,87.16
2022-09-28T17:31:24.793Z,87.19
2022-09-28T17:33:53.947Z,87.17
2022-09-28T17:36:26.775Z,87.04
2022-09-28T17:39:00.803Z,87.30
2022-09-28T17:41:31.672Z,87.41
2022-09-28T17:44:03.145Z,87.39
2022-09-28T17:46:49.588Z,87.14
2022-09-28T17:49:18.827Z,86.62
2022-09-28T17:52:04.898Z,86.60
2022-09-28T17:54:33.394Z,86.26
2022-09-28T17:57:07.685Z,86.47
2022-09-28T17:59:38.273Z,87.00
2022-09-28T18:02:12.415Z,87.96
2022-09-28T18:04:52.615Z,88.18
2022-09-28T18:07:22.190Z,88.70
2022-09-28T18:09:56.867Z,88.95
2022-09-28T18:12:28.559Z,89.06
2022-09-28T18:15:00.927Z,89.16
2022-09-28T18:17:34.732Z,89.18
2022-09-28T18:20:12.776Z,89.41
2022-09-28T18:22:49.495Z,89.51
2022-09-28T18:25:23.970Z,89.24
2022-09-28T18:27:56.721Z,89.16
2022-09-28T18:30:31.164Z,89.35
2022-09-28T18:33:01.564Z,89.72
2022-09-28T18:35:30.828Z,89.96
2022-09-28T18:37:59.663Z,90.02
2022-09-28T18:40:30.854Z,90.20
2022-09-28T18:42:59.894Z,90.19
2022-09-28T18:45:29.828Z,90.14
2022-09-28T18:48:01.609Z,90.15
2022-09-28T18:50:30.388Z,90.39
2022-09-28T18:53:12.630Z,90.48
2022-09-28T18:55:44.578Z,90.62
2022-09-28T18:58:18.858Z,90.73
2022-09-28T19:01:08.649Z,90.57
2022-09-28T19:03:50.668Z,90.76
2022-09-28T19:06:26.443Z,91.05
2022-09-28T19:09:11.715Z,91.11
2022-09-28T19:11:46.045Z,91.15
2022-09-28T19:14:19.867Z,91.38
2022-09-28T19:16:54.815Z,91.45
2022-09-28T19:19:30.374Z,91.36
2022-09-28T19:21:59.625Z,91.41
2022-09-28T19:24:43.796Z,91.47
2022-09-28T19:27:12.302Z,91.41
2022-09-28T19:29:43.692Z,91.21
2022-09-28T19:32:15.130Z,91.26
2022-09-28T19:34:43.709Z,91.19
2022-09-28T19:37:16.558Z,90.91
2022-09-28T19:39:50.177Z,90.88
2022-09-28T19:42:19.134Z,90.83
2022-09-28T19:44:51.434Z,90.48
2022-09-28T19:47:21.076Z,90.36
2022-09-28T19:49:49.772Z,90.52
2022-09-28T19:52:18.468Z,90.58
2022-09-28T19:54:55.857Z,90.66
2022-09-28T19:57:26.860Z,90.87
2022-09-28T20:00:00.856Z,90.98
2022-09-28T20:02:29.949Z,90.83
2022-09-28T20:04:58.539Z,90.81
2022-09-28T20:07:27.039Z,90.92
2022-09-28T20:09:55.551Z,90.89
2022-09-28T20:12:24.126Z,90.81
2022-09-28T20:14:52.681Z,90.63
2022-09-28T20:17:21.166Z,90.40
2022-09-28T20:19:51.098Z,90.01
2022-09-28T20:22:20.588Z,89.95
2022-09-28T20:24:49.195Z,90.20
2022-09-28T20:27:17.681Z,90.20
2022-09-28T20:29:46.274Z,90.14
2022-09-28T20:32:15.442Z,90.40
2022-09-28T20:34:43.989Z,90.31
2022-09-28T20:37:13.300Z,90.48
2022-09-28T20:39:44.910Z,90.67
2022-09-28T20:42:15.060Z,90.57
2022-09-28T20:44:43.637Z,90.49
2022-09-28T20:47:12.016Z,90.41
2022-09-28T20:49:40.888Z,90.41
2022-09-28T20:52:09.346Z,90.14
2022-09-28T20:54:37.891Z,90.02
2022-09-28T20:57:16.668Z,89.99
2022-09-28T20:59:47.172Z,90.11
2022-09-28T21:02:18.213Z,90.06
2022-09-28T21:04:46.730Z,89.99
2022-09-28T21:07:15.188Z,89.89
2022-09-28T21:09:43.961Z,89.94
2022-09-28T21:12:14.513Z,89.95
2022-09-28T21:14:43.089Z,89.75
2022-09-28T21:17:11.546Z,89.74
2022-09-28T21:19:40.041Z,89.61
2022-09-28T21:22:08.488Z,89.75
2022-09-28T21:24:37.057Z,89.52
2022-09-28T21:27:05.564Z,89.46
2022-09-28T21:29:34.322Z,89.55
2022-09-28T21:32:03.246Z,89.44
2022-09-28T21:34:32.003Z,89.52
2022-09-28T21:37:00.748Z,89.42
2022-09-28T21:39:29.501Z,89.43
2022-09-28T21:41:58.028Z,89.34
2022-09-28T21:44:26.611Z,89.15
2022-09-28T21:46:55.113Z,89.24
2022-09-28T21:49:23.652Z,89.28
2022-09-28T21:51:52.156Z,89.29
2022-09-28T21:54:20.786Z,89.31
2022-09-28T21:56:49.238Z,89.27
2022-09-28T21:59:18.006Z,89.31
2022-09-28T22:01:47.500Z,89.12
2022-09-28T22:04:16.557Z,89.14
2022-09-28T22:06:44.961Z,88.85
2022-09-28T22:09:13.456Z,88.63
2022-09-28T22:11:42.466Z,88.62
2022-09-28T22:14:11.244Z,88.69
2022-09-28T22:16:40.076Z,88.69
2022-09-28T22:19:08.600Z,88.70
2022-09-28T22:21:37.044Z,88.61
2022-09-28T22:24:07.406Z,88.43
2022-09-28T22:26:36.960Z,88.14
2022-09-28T22:29:08.735Z,88.07
2022-09-28T22:31:39.454Z,88.12
2022-09-28T22:34:09.113Z,88.24
2022-09-28T22:36:38.124Z,88.24
2022-09-28T22:39:06.618Z,88.46
2022-09-28T22:41:35.296Z,88.77
2022-09-28T22:44:03.842Z,88.95
2022-09-28T22:46:34.271Z,89.05
2022-09-28T22:49:02.976Z,89.28
2022-09-28T22:51:32.088Z,89.23
2022-09-28T22:54:00.762Z,89.15
2022-09-28T22:56:29.254Z,89.27
2022-09-28T22:58:57.776Z,89.25
2022-09-28T23:01:28.187Z,89.08
2022-09-28T23:03:58.025Z,89.03
2022-09-28T23:06:28.382Z,89.10
2022-09-28T23:08:57.244Z,88.84
2022-09-28T23:11:25.797Z,88.86
2022-09-28T23:13:56.086Z,88.75
2022-09-28T23:16:25.914Z,88.71
2022-09-28T23:18:55.267Z,88.63
2022-09-28T23:21:25.874Z,88.62
2022-09-28T23:23:56.751Z,88.48
2022-09-28T23:26:26.770Z,88.53
2022-09-28T23:28:55.610Z,88.65
2022-09-28T23:31:25.930Z,88.58
2022-09-28T23:33:59.131Z,88.50
2022-09-28T23:36:28.098Z,88.58
2022-09-28T23:38:56.637Z,88.52
2022-09-28T23:41:25.222Z,88.27
2022-09-28T23:43:54.182Z,88.12
2022-09-28T23:46:22.874Z,88.12
2022-09-28T23:48:51.643Z,88.28
2022-09-28T23:51:20.098Z,88.44
2022-09-28T23:53:48.529Z,88.27
2022-09-28T23:56:17.020Z,88.31
2022-09-28T23:58:45.442Z,88.46
